createdAt,value
2018-09-18T00:03:20.085Z,21.10
2018-09-18T00:08:23.463Z,21.20
2018-09-18T00:13:26.712Z,20.90
2018-09-18T00:18:29.992Z,21.00
2018-09-18T00:23:33.276Z,21.00
2018-09-18T00:28:36.546Z,21.10
2018-09-18T00:33:39.839Z,21.00
2018-09-18T00:38:43.114Z,21.00
2018-09-18T00:43:46.336Z,20.80
2018-09-18T00:48:49.579Z,21.00
2018-09-18T00:53:52.795Z,21.00
2018-09-18T00:58:56.044Z,21.20
2018-09-18T01:03:59.276Z,20.90
2018-09-18T01:09:02.512Z,20.90
2018-09-18T01:14:05.776Z,20.80
2018-09-18T01:19:09.060Z,20.70
2018-09-18T01:24:12.337Z,20.80
2018-09-18T01:29:15.598Z,20.60
2018-09-18T01:34:18.928Z,20.80
2018-09-18T01:39:22.215Z,20.80
2018-09-18T01:44:25.507Z,20.70
2018-09-18T01:49:28.777Z,20.60
2018-09-18T01:54:32.056Z,20.50
2018-09-18T01:59:35.333Z,20.50
2018-09-18T02:04:38.615Z,20.50
2018-09-18T02:09:41.856Z,20.50
2018-09-18T02:14:45.109Z,20.50
2018-09-18T02:19:48.375Z,20.30
2018-09-18T02:24:51.685Z,20.50
2018-09-18T02:29:54.952Z,20.40
2018-09-18T02:34:58.234Z,20.40
2018-09-18T02:40:01.512Z,20.40
2018-09-18T02:45:04.800Z,20.40
2018-09-18T02:50:08.084Z,20.60
2018-09-18T02:55:11.337Z,20.40
2018-09-18T03:00:14.605Z,20.50
2018-09-18T03:05:17.889Z,20.30
2018-09-18T03:10:21.136Z,20.50
2018-09-18T03:15:24.396Z,20.30
2018-09-18T03:20:27.673Z,20.30
2018-09-18T03:25:30.949Z,20.20
2018-09-18T03:30:34.222Z,20.20
2018-09-18T03:35:37.606Z,20.20
2018-09-18T03:40:40.847Z,20.20
2018-09-18T03:45:44.158Z,20.20
2018-09-18T03:50:47.428Z,20.20
2018-09-18T03:55:50.696Z,20.20
2018-09-18T04:00:54.248Z,20.20
2018-09-18T04:05:57.519Z,20.20
2018-09-18T04:11:00.785Z,20.20
2018-09-18T04:16:04.040Z,20.50
2018-09-18T04:21:07.322Z,20.20
2018-09-18T04:26:10.588Z,20.20
2018-09-18T04:31:14.041Z,20.20
2018-09-18T04:36:17.288Z,20.20
2018-09-18T04:41:20.591Z,20.20
2018-09-18T04:46:24.062Z,20.20
2018-09-18T04:51:27.314Z,20.20
2018-09-18T04:56:30.746Z,20.20
2018-09-18T05:01:34.182Z,20.30
2018-09-18T05:06:37.428Z,20.10
2018-09-18T05:11:40.820Z,20.20
2018-09-18T05:16:44.085Z,20.00
2018-09-18T05:21:47.361Z,20.20
2018-09-18T05:26:50.612Z,20.20
2018-09-18T05:31:53.872Z,20.20
2018-09-18T05:36:57.153Z,20.30
2018-09-18T05:42:00.514Z,20.20
2018-09-18T05:47:03.696Z,20.50
2018-09-18T05:52:06.967Z,20.20
2018-09-18T05:57:10.327Z,20.20
2018-09-18T06:02:13.616Z,20.20
2018-09-18T06:07:17.076Z,20.20
2018-09-18T06:12:20.376Z,20.10
2018-09-18T06:17:23.601Z,20.20
2018-09-18T06:22:26.844Z,20.20
2018-09-18T06:27:30.088Z,20.20
2018-09-18T06:32:33.398Z,20.20
2018-09-18T06:37:36.703Z,20.30
2018-09-18T06:42:39.932Z,20.30
2018-09-18T06:47:43.185Z,20.30
2018-09-18T06:52:46.480Z,20.40
2018-09-18T06:57:49.760Z,20.40
2018-09-18T07:02:53.064Z,20.40
2018-09-18T07:07:56.325Z,20.40
2018-09-18T07:12:59.624Z,20.50
2018-09-18T07:18:02.918Z,20.60
2018-09-18T07:23:06.169Z,20.50
2018-09-18T07:28:09.413Z,20.60
2018-09-18T07:33:12.685Z,20.60
2018-09-18T07:38:15.977Z,20.70
2018-09-18T07:43:19.240Z,20.60
2018-09-18T07:48:22.593Z,20.60
2018-09-18T07:53:25.837Z,20.90
2018-09-18T07:58:29.104Z,20.80
2018-09-18T08:03:32.382Z,20.80
2018-09-18T08:08:35.661Z,21.00
2018-09-18T08:13:38.909Z,21.10
2018-09-18T08:18:42.310Z,21.00
2018-09-18T08:23:45.537Z,21.10
2018-09-18T08:28:48.817Z,21.30
2018-09-18T08:33:52.069Z,21.30
2018-09-18T08:38:55.345Z,21.50
2018-09-18T08:43:58.636Z,21.50
2018-09-18T08:49:01.901Z,21.60
2018-09-18T08:54:05.136Z,21.70
2018-09-18T08:59:08.373Z,21.80
2018-09-18T09:04:11.616Z,21.90
2018-09-18T09:09:15.443Z,21.70
2018-09-18T09:14:18.689Z,22.30
2018-09-18T09:19:21.917Z,22.10
2018-09-18T09:24:25.183Z,22.40
2018-09-18T09:29:28.410Z,22.10
2018-09-18T09:34:31.669Z,22.40
2018-09-18T09:39:34.952Z,22.60
2018-09-18T09:44:38.257Z,22.70
2018-09-18T09:49:41.581Z,22.80
2018-09-18T09:54:44.813Z,22.90
2018-09-18T09:59:48.075Z,23.10
2018-09-18T10:04:51.337Z,23.20
2018-09-18T10:09:54.595Z,23.30
2018-09-18T10:14:57.844Z,23.40
2018-09-18T10:20:01.093Z,23.60
2018-09-18T10:25:04.492Z,23.60
2018-09-18T10:30:07.684Z,23.70
2018-09-18T10:35:10.981Z,23.90
2018-09-18T10:40:14.257Z,24.00
2018-09-18T10:45:17.511Z,24.10
2018-09-18T10:50:20.766Z,24.20
2018-09-18T10:55:24.096Z,24.40
2018-09-18T11:00:27.326Z,24.40
2018-09-18T11:05:30.542Z,24.50
2018-09-18T11:10:33.844Z,24.70
2018-09-18T11:15:37.207Z,24.70
2018-09-18T11:20:40.399Z,24.80
2018-09-18T11:25:43.661Z,24.90
2018-09-18T11:30:46.905Z,25.00
2018-09-18T11:35:50.187Z,25.20
2018-09-18T11:40:53.451Z,25.20
2018-09-18T11:45:56.812Z,25.20
2018-09-18T11:50:59.998Z,25.30
2018-09-18T11:56:03.269Z,25.40
2018-09-18T12:01:06.566Z,25.50
2018-09-18T12:06:09.834Z,25.50
2018-09-18T12:11:13.135Z,25.50
2018-09-18T12:16:16.362Z,25.50
2018-09-18T12:21:19.617Z,25.60
2018-09-18T12:26:22.868Z,25.60
2018-09-18T12:31:26.142Z,25.70
2018-09-18T12:36:29.441Z,25.80
2018-09-18T12:41:32.815Z,25.80
2018-09-18T12:46:35.978Z,25.80
2018-09-18T12:51:39.238Z,25.80
2018-09-18T12:56:42.486Z,26.00
2018-09-18T13:01:45.746Z,26.30
2018-09-18T13:06:49.380Z,26.10
2018-09-18T13:11:52.562Z,26.20
2018-09-18T13:16:55.910Z,26.70
2018-09-18T13:21:59.171Z,26.30
2018-09-18T13:27:03.136Z,26.20
2018-09-18T13:32:06.540Z,26.00
2018-09-18T13:37:09.825Z,26.00
2018-09-18T13:42:13.104Z,26.40
2018-09-18T13:47:16.401Z,26.30
2018-09-18T13:52:19.685Z,26.20
2018-09-18T13:57:22.953Z,26.20
2018-09-18T14:02:26.372Z,25.90
2018-09-18T14:07:37.412Z,25.80
2018-09-18T14:12:40.717Z,25.90
2018-09-18T14:17:43.949Z,26.30
2018-09-18T14:22:47.177Z,26.20
2018-09-18T14:27:50.468Z,26.00
2018-09-18T14:32:53.769Z,26.00
2018-09-18T14:37:57.101Z,26.00
2018-09-18T14:43:00.339Z,26.00
2018-09-18T14:48:03.654Z,26.00
2018-09-18T14:53:06.928Z,26.00
2018-09-18T14:58:10.192Z,26.00
2018-09-18T15:03:13.425Z,26.00
2018-09-18T15:08:16.863Z,26.00
2018-09-18T15:13:20.104Z,26.10
2018-09-18T15:18:23.498Z,26.00
2018-09-18T15:23:26.792Z,26.10
2018-09-18T15:28:30.934Z,26.10
2018-09-18T15:33:34.259Z,26.10
2018-09-18T15:38:37.459Z,26.20
2018-09-18T15:43:40.724Z,26.20
2018-09-18T15:48:43.996Z,26.20
2018-09-18T15:53:47.300Z,26.70
2018-09-18T15:58:56.920Z,27.10
2018-09-18T16:04:00.469Z,27.30
2018-09-18T16:09:05.080Z,27.30
2018-09-18T16:14:09.040Z,27.30
2018-09-18T16:19:12.316Z,27.50
2018-09-18T16:24:15.559Z,27.50
2018-09-18T16:29:18.810Z,27.50
2018-09-18T16:34:22.260Z,27.50
2018-09-18T16:39:26.109Z,27.50
2018-09-18T16:44:29.349Z,27.40
2018-09-18T16:49:32.624Z,27.20
2018-09-18T16:54:35.931Z,26.90
2018-09-18T16:59:39.127Z,26.80
2018-09-18T17:04:42.467Z,26.70
2018-09-18T17:09:45.666Z,26.60
2018-09-18T17:14:48.927Z,26.50
2018-09-18T17:19:52.165Z,26.40
2018-09-18T17:24:55.401Z,26.40
2018-09-18T17:29:58.664Z,26.30
2018-09-18T17:35:01.983Z,26.20
2018-09-18T17:40:05.323Z,26.20
2018-09-18T17:45:08.658Z,26.20
2018-09-18T17:50:11.959Z,26.20
2018-09-18T17:55:15.175Z,26.20
2018-09-18T18:00:18.437Z,26.20
2018-09-18T18:05:21.710Z,26.20
2018-09-18T18:10:24.961Z,26.20
2018-09-18T18:15:28.658Z,26.20
2018-09-18T18:20:32.141Z,26.10
2018-09-18T18:25:35.303Z,26.10
2018-09-18T18:30:38.540Z,26.10
2018-09-18T18:35:41.820Z,26.10
2018-09-18T18:40:45.104Z,26.10
2018-09-18T18:45:48.367Z,26.10
2018-09-18T18:50:51.612Z,26.10
2018-09-18T18:55:58.048Z,26.10
2018-09-18T19:01:01.301Z,26.00
2018-09-18T19:06:04.601Z,26.00
2018-09-18T19:11:07.964Z,26.00
2018-09-18T19:16:11.289Z,25.80
2018-09-18T19:21:14.532Z,25.80
2018-09-18T19:26:17.821Z,25.80
2018-09-18T19:31:21.092Z,25.70
2018-09-18T19:36:24.362Z,25.60
2018-09-18T19:41:27.665Z,25.60
2018-09-18T19:46:30.937Z,25.50
2018-09-18T19:51:34.184Z,25.50
2018-09-18T19:56:37.998Z,25.50
2018-09-18T20:01:41.279Z,25.40
2018-09-18T20:06:44.510Z,25.40
2018-09-18T20:11:48.409Z,25.40
2018-09-18T20:16:52.117Z,25.40
2018-09-18T20:21:55.361Z,25.30
2018-09-18T20:26:58.709Z,25.30
2018-09-18T20:32:01.964Z,25.20
2018-09-18T20:37:05.250Z,25.10
2018-09-18T20:42:08.592Z,25.00
2018-09-18T20:47:11.858Z,25.00
2018-09-18T20:52:15.114Z,25.00
2018-09-18T20:57:18.433Z,25.00
2018-09-18T21:02:21.727Z,24.90
2018-09-18T21:07:25.003Z,24.90
2018-09-18T21:12:28.316Z,24.80
2018-09-18T21:17:31.551Z,24.90
2018-09-18T21:22:34.793Z,24.80
2018-09-18T21:27:38.048Z,24.70
2018-09-18T21:32:41.307Z,24.50
2018-09-18T21:37:44.540Z,24.60
2018-09-18T21:42:47.823Z,24.40
2018-09-18T21:47:51.090Z,24.50
2018-09-18T21:52:54.320Z,24.50
2018-09-18T21:57:57.593Z,24.30
2018-09-18T22:03:01.548Z,24.40
2018-09-18T22:08:04.795Z,24.40
2018-09-18T22:13:08.037Z,24.40
2018-09-18T22:18:11.289Z,24.40
2018-09-18T22:23:14.543Z,24.20
2018-09-18T22:28:17.788Z,24.20
2018-09-18T22:33:21.017Z,24.20
2018-09-18T22:38:24.260Z,24.20
2018-09-18T22:43:27.553Z,24.10
2018-09-18T22:48:30.833Z,24.10
2018-09-18T22:53:34.085Z,24.10
2018-09-18T22:58:37.313Z,24.10
2018-09-18T23:03:40.568Z,23.90
2018-09-18T23:08:44.210Z,23.90
2018-09-18T23:13:47.476Z,23.90
2018-09-18T23:18:50.750Z,24.00
2018-09-18T23:23:53.964Z,24.00
2018-09-18T23:28:57.208Z,23.90
2018-09-18T23:34:00.523Z,23.70
2018-09-18T23:39:05.032Z,23.80
2018-09-18T23:44:08.435Z,23.60
2018-09-18T23:49:11.740Z,23.80
2018-09-18T23:54:14.976Z,23.80
2018-09-18T23:59:18.208Z,23.60
